Time;durP1;ratioP1;P1;durP2;ratioP2;P2;SDS_P1;SDS_P2;PMS_P1;PMS_P2;Temp;Humidity;BMP_temperature;BMP_pressure;BME280_temperature;BME280_humidity;BME280_pressure;Samples;Min_cycle;Max_cycle;Signal;HPM_P1;HPM_P2
2020/12/08 00:01:11;;;;;;;6.87;1.80;;;;;;;-6.83;67.12;100894.48;1721021;81;21233;-50
2020/12/08 00:03:38;;;;;;;6.47;2.07;;;;;;;-6.88;67.14;100889.95;1720486;81;21199;-52
2020/12/08 00:06:05;;;;;;;9.47;2.53;;;;;;;-6.94;67.14;100886.20;1722305;81;21605;-50
2020/12/08 00:08:33;;;;;;;4.90;1.63;;;;;;;-7.00;67.32;100872.47;1724435;81;21167;-50
2020/12/08 00:11:00;;;;;;;7.10;2.03;;;;;;;-7.01;67.45;100891.62;1724196;81;21130;-52
2020/12/08 00:13:27;;;;;;;7.13;1.70;;;;;;;-7.03;67.50;100881.50;1726624;81;21877;-53
2020/12/08 00:15:55;;;;;;;6.37;1.60;;;;;;;-7.03;67.59;100876.67;1721608;81;21225;-52
2020/12/08 00:18:22;;;;;;;6.20;1.73;;;;;;;-7.00;67.59;100888.17;1726491;81;21226;-50
2020/12/08 00:20:49;;;;;;;6.90;1.90;;;;;;;-7.00;67.62;100882.05;1739690;80;21832;-51
2020/12/08 00:23:16;;;;;;;5.43;1.57;;;;;;;-6.98;67.69;100890.45;1736574;81;21206;-50
2020/12/08 00:25:43;;;;;;;8.03;1.83;;;;;;;-6.95;67.71;100887.03;1708097;82;22186;-52
2020/12/08 00:28:10;;;;;;;5.40;1.50;;;;;;;-6.94;67.67;100877.94;1730562;81;21211;-52
2020/12/08 00:30:38;;;;;;;4.80;1.33;;;;;;;-6.94;67.63;100883.17;1715636;82;21281;-52
2020/12/08 00:33:05;;;;;;;6.43;1.60;;;;;;;-6.93;67.58;100878.41;1716331;82;21199;-51
2020/12/08 00:35:32;;;;;;;6.10;1.30;;;;;;;-6.95;67.48;100881.38;1737209;80;21754;-52
2020/12/08 00:37:59;;;;;;;4.90;2.10;;;;;;;-6.99;67.52;100891.27;1731009;81;23093;-51
2020/12/08 00:40:26;;;;;;;6.93;1.43;;;;;;;-7.00;67.58;100882.94;1737936;80;21223;-52
2020/12/08 00:42:53;;;;;;;9.00;2.17;;;;;;;-7.03;67.69;100871.03;1729982;81;21188;-50
2020/12/08 00:45:20;;;;;;;6.63;2.10;;;;;;;-7.04;67.68;100857.47;1742987;80;21197;-51
2020/12/08 00:47:48;;;;;;;9.87;1.83;;;;;;;-7.01;67.71;100854.08;1732551;81;21191;-52
2020/12/08 00:50:15;;;;;;;6.40;1.90;;;;;;;-7.05;67.70;100855.67;1713533;82;21234;-49
2020/12/08 00:52:42;;;;;;;7.63;2.43;;;;;;;-7.10;67.77;100849.38;1731913;81;21919;-51
2020/12/08 00:55:12;;;;;;;5.27;1.70;;;;;;;-7.12;67.91;100852.76;1736624;80;21565;-51
2020/12/08 00:57:42;;;;;;;4.63;1.70;;;;;;;-7.09;67.95;100853.78;1698887;81;21210;-51
2020/12/08 01:00:10;;;;;;;6.13;1.77;;;;;;;-7.06;67.92;100851.72;1734320;80;21102;-53
2020/12/08 01:02:40;;;;;;;5.90;1.83;;;;;;;-7.04;67.93;100850.02;1732773;81;22598;-51
2020/12/08 01:05:11;;;;;;;8.57;2.33;;;;;;;-7.02;67.76;100853.19;1706446;82;21196;-50
2020/12/08 01:07:37;;;;;;;13.03;2.53;;;;;;;-7.03;67.77;100859.25;1729071;81;21226;-52
2020/12/08 01:10:05;;;;;;;5.40;1.43;;;;;;;-7.05;67.69;100844.31;1706979;81;21257;-52
2020/12/08 01:12:33;;;;;;;6.00;2.17;;;;;;;-7.08;67.70;100841.18;1711009;82;21249;-51
2020/12/08 01:15:01;;;;;;;5.17;1.40;;;;;;;-7.12;67.72;100848.83;1732053;81;22393;-54
2020/12/08 01:17:33;;;;;;;7.63;1.80;;;;;;;-7.16;67.84;100846.53;1732534;81;21242;-53
2020/12/08 01:20:00;;;;;;;7.43;1.50;;;;;;;-7.15;67.91;100853.55;1736658;81;21134;-52
2020/12/08 01:22:29;;;;;;;4.40;1.40;;;;;;;-7.14;67.83;100850.48;1701521;81;21565;-51
2020/12/08 01:24:56;;;;;;;7.13;2.00;;;;;;;-7.14;67.93;100854.41;1731926;81;21182;-49
2020/12/08 01:27:24;;;;;;;4.43;0.97;;;;;;;-7.15;68.03;100852.24;1729295;81;21366;-54
2020/12/08 01:29:52;;;;;;;6.70;1.60;;;;;;;-7.14;68.06;100853.11;1742285;80;21245;-50
2020/12/08 01:32:20;;;;;;;6.53;1.50;;;;;;;-7.14;68.06;100867.08;1716490;82;21442;-49
2020/12/08 01:34:49;;;;;;;7.10;1.57;;;;;;;-7.14;68.13;100868.39;1707627;82;21232;-49
2020/12/08 01:37:16;;;;;;;5.80;2.23;;;;;;;-7.12;68.09;100873.27;1738593;80;21614;-51
2020/12/08 01:39:43;;;;;;;5.83;1.77;;;;;;;-7.12;68.13;100881.54;1737981;80;21713;-50
2020/12/08 01:42:11;;;;;;;6.67;1.93;;;;;;;-7.10;68.15;100878.16;1740718;80;21178;-51
2020/12/08 01:44:47;;;;;;;8.83;1.60;;;;;;;-7.10;68.23;100872.93;1740209;80;21159;-49
2020/12/08 01:47:15;;;;;;;6.60;1.60;;;;;;;-7.08;68.27;100872.58;1712425;82;21672;-49
2020/12/08 01:49:47;;;;;;;4.30;1.10;;;;;;;-7.05;68.27;100871.37;1699280;82;21148;-50
2020/12/08 01:52:17;;;;;;;6.73;1.80;;;;;;;-7.04;68.29;100870.96;1685924;82;22113;-50
2020/12/08 01:54:46;;;;;;;7.43;2.17;;;;;;;-7.02;68.25;100880.67;1699801;82;21469;-51
2020/12/08 01:57:15;;;;;;;8.50;3.00;;;;;;;-6.98;68.31;100883.01;1742834;80;21150;-49
2020/12/08 01:59:43;;;;;;;6.67;2.40;;;;;;;-6.96;68.29;100886.14;1733372;81;21116;-49
2020/12/08 02:02:12;;;;;;;8.23;2.53;;;;;;;-6.94;68.24;100880.55;1712648;82;21530;-51
2020/12/08 02:04:40;;;;;;;7.93;2.10;;;;;;;-6.96;68.25;100871.73;1740520;80;21576;-52
2020/12/08 02:07:07;;;;;;;4.87;1.63;;;;;;;-6.97;68.28;100880.42;1729261;81;21424;-51
2020/12/08 02:09:36;;;;;;;4.13;1.47;;;;;;;-6.98;68.41;100873.84;1712133;82;21194;-53
2020/12/08 02:12:04;;;;;;;5.07;1.57;;;;;;;-6.94;68.47;100879.66;1704765;80;21184;-53
2020/12/08 02:14:34;;;;;;;7.10;1.90;;;;;;;-6.90;68.45;100882.89;1715199;82;21139;-52
2020/12/08 02:17:01;;;;;;;9.47;2.60;;;;;;;-6.88;68.45;100880.78;1740476;80;22015;-50
2020/12/08 02:19:30;;;;;;;5.60;1.63;;;;;;;-6.85;68.44;100876.09;1707996;80;22558;-54
2020/12/08 02:21:59;;;;;;;6.30;1.63;;;;;;;-6.84;68.42;100877.88;1712351;82;21681;-52
2020/12/08 02:24:27;;;;;;;9.47;2.20;;;;;;;-6.85;68.46;100868.24;1716862;82;21114;-52
2020/12/08 02:26:54;;;;;;;5.53;1.80;;;;;;;-6.83;68.44;100873.12;1715426;80;21183;-52
2020/12/08 02:29:22;;;;;;;6.40;2.93;;;;;;;-6.80;68.46;100867.13;1741972;80;21223;-52
2020/12/08 02:31:51;;;;;;;7.63;2.30;;;;;;;-6.78;68.37;100868.05;1742091;80;21142;-52
2020/12/08 02:34:21;;;;;;;6.43;1.67;;;;;;;-6.79;68.37;100863.23;1741426;80;21127;-52
2020/12/08 02:36:52;;;;;;;7.17;2.13;;;;;;;-6.77;68.40;100860.68;1728889;81;21138;-52
2020/12/08 02:39:19;;;;;;;6.40;2.20;;;;;;;-6.76;68.41;100860.75;1712977;80;21712;-52
2020/12/08 02:41:46;;;;;;;8.93;3.43;;;;;;;-6.77;68.42;100860.27;1738525;80;21225;-51
2020/12/08 02:44:14;;;;;;;9.90;2.67;;;;;;;-6.79;68.44;100860.62;1709644;82;21246;-52
2020/12/08 02:46:43;;;;;;;8.27;2.23;;;;;;;-6.79;68.51;100859.72;1730667;81;21253;-53
2020/12/08 02:49:10;;;;;;;6.83;1.97;;;;;;;-6.80;68.60;100857.52;1712385;82;21228;-52
2020/12/08 02:51:37;;;;;;;5.27;1.80;;;;;;;-6.80;68.61;100855.34;1709596;82;21208;-53
2020/12/08 02:54:06;;;;;;;7.67;1.77;;;;;;;-6.80;68.64;100857.52;1718350;82;21586;-49
2020/12/08 02:56:33;;;;;;;7.47;1.97;;;;;;;-6.82;68.61;100857.91;1737578;80;21288;-48
2020/12/08 02:59:03;;;;;;;8.43;2.37;;;;;;;-6.87;68.64;100853.78;1731332;81;21253;-49
2020/12/08 03:01:30;;;;;;;10.90;2.13;;;;;;;-6.87;68.79;100851.58;1733768;81;21114;-50
2020/12/08 03:03:59;;;;;;;9.80;2.47;;;;;;;-6.88;68.81;100853.30;1733452;81;21131;-51
2020/12/08 03:06:26;;;;;;;6.73;2.10;;;;;;;-6.93;68.94;100847.42;1729485;81;21378;-51
2020/12/08 03:08:55;;;;;;;11.57;2.50;;;;;;;-6.96;69.07;100846.87;1735630;81;21505;-53
2020/12/08 03:11:32;;;;;;;8.77;2.63;;;;;;;-6.95;69.18;100849.97;1726517;81;21151;-53
2020/12/08 03:14:01;;;;;;;8.63;2.80;;;;;;;-6.94;69.24;100858.30;1729589;81;21625;-50
2020/12/08 03:16:29;;;;;;;7.90;1.87;;;;;;;-6.95;69.30;100855.62;1740178;80;21179;-49
2020/12/08 03:18:57;;;;;;;7.20;2.23;;;;;;;-6.97;69.35;100856.86;1731530;81;21390;-51
2020/12/08 03:21:26;;;;;;;7.87;2.83;;;;;;;-6.98;69.46;100851.59;1735421;80;21156;-50
2020/12/08 03:23:53;;;;;;;9.23;1.97;;;;;;;-6.97;69.52;100853.35;1733034;81;21724;-51
2020/12/08 03:26:22;;;;;;;16.37;2.23;;;;;;;-6.94;69.56;100859.61;1715465;82;21106;-48
2020/12/08 03:28:54;;;;;;;11.17;2.90;;;;;;;-6.89;69.54;100842.34;1706730;82;21184;-48
2020/12/08 03:31:23;;;;;;;9.97;2.60;;;;;;;-6.87;69.46;100847.23;1739418;80;22103;-49
2020/12/08 03:33:51;;;;;;;6.60;2.53;;;;;;;-6.86;69.42;100845.51;1742676;80;21139;-49
2020/12/08 03:36:18;;;;;;;6.93;2.23;;;;;;;-6.84;69.46;100845.16;1737968;80;21200;-52
2020/12/08 03:38:49;;;;;;;8.87;1.93;;;;;;;-6.82;69.36;100831.72;1732766;81;21190;-48
2020/12/08 03:41:22;;;;;;;8.40;2.43;;;;;;;-6.81;69.38;100838.75;1719279;80;21503;-52
2020/12/08 03:43:53;;;;;;;7.97;1.97;;;;;;;-6.82;69.37;100837.37;1729150;81;23317;-48
2020/12/08 03:46:23;;;;;;;7.00;1.73;;;;;;;-6.83;69.29;100830.34;1740136;80;21448;-51
2020/12/08 03:48:53;;;;;;;6.20;1.90;;;;;;;-6.86;69.34;100831.11;1707192;81;21684;-48
2020/12/08 03:51:21;;;;;;;5.47;2.20;;;;;;;-6.87;69.36;100833.25;1677311;82;22284;-49
2020/12/08 03:53:48;;;;;;;7.83;2.27;;;;;;;-6.88;69.43;100832.77;1742153;80;21202;-48
2020/12/08 03:56:18;;;;;;;12.27;3.00;;;;;;;-6.87;69.47;100832.84;1718196;82;22595;-52
2020/12/08 03:58:47;;;;;;;10.40;2.43;;;;;;;-6.89;69.48;100834.94;1731120;81;21142;-52
2020/12/08 04:01:19;;;;;;;9.07;1.80;;;;;;;-6.92;69.54;100830.89;1713527;82;21225;-51
2020/12/08 04:03:47;;;;;;;7.63;2.33;;;;;;;-6.95;69.62;100821.18;1707126;82;21665;-49
2020/12/08 04:06:15;;;;;;;7.03;3.27;;;;;;;-6.94;69.71;100826.00;1689688;82;21204;-53
2020/12/08 04:08:44;;;;;;;5.30;1.80;;;;;;;-6.96;69.80;100822.42;1728540;81;21233;-50
2020/12/08 04:11:12;;;;;;;7.90;2.27;;;;;;;-6.95;69.85;100815.95;1698114;81;22142;-49
2020/12/08 04:13:42;;;;;;;10.47;2.67;;;;;;;-6.93;69.93;100815.59;1735922;81;21270;-49
2020/12/08 04:16:13;;;;;;;15.17;3.73;;;;;;;-6.94;69.94;100818.15;1731965;81;21196;-50
2020/12/08 04:18:42;;;;;;;6.37;2.30;;;;;;;-6.94;69.99;100818.15;1695206;82;21582;-49
2020/12/08 04:21:10;;;;;;;9.53;2.67;;;;;;;-6.95;70.03;100816.36;1700685;82;21516;-50
2020/12/08 04:23:38;;;;;;;9.93;1.97;;;;;;;-6.96;70.12;100812.85;1700510;82;21243;-50
2020/12/08 04:26:10;;;;;;;7.67;2.17;;;;;;;-6.96;70.14;100816.78;1697653;82;21233;-52
2020/12/08 04:28:41;;;;;;;13.93;3.33;;;;;;;-6.97;70.21;100820.64;1699165;82;21606;-51
2020/12/08 04:31:16;;;;;;;8.77;2.37;;;;;;;-6.98;70.26;100825.42;1678300;82;21182;-51
2020/12/08 04:33:44;;;;;;;9.77;2.43;;;;;;;-6.97;70.30;100818.91;1698061;82;21423;-49
2020/12/08 04:36:20;;;;;;;10.30;3.13;;;;;;;-6.96;70.27;100819.39;1698632;82;21656;-50
2020/12/08 04:38:48;;;;;;;8.53;1.97;;;;;;;-6.99;70.33;100812.75;1697825;82;21477;-49
2020/12/08 04:41:23;;;;;;;12.83;2.97;;;;;;;-6.98;70.40;100820.19;1699978;82;21206;-49
2020/12/08 04:43:52;;;;;;;9.50;3.30;;;;;;;-6.96;70.45;100815.47;1704444;82;21107;-51
2020/12/08 04:46:20;;;;;;;9.27;2.63;;;;;;;-6.97;70.44;100813.67;1699516;82;21239;-50
2020/12/08 04:48:49;;;;;;;8.73;2.43;;;;;;;-6.99;70.48;100814.48;1703085;82;21138;-51
2020/12/08 04:51:16;;;;;;;9.07;2.30;;;;;;;-7.01;70.56;100825.30;1699740;82;21218;-53
2020/12/08 04:53:50;;;;;;;8.43;3.07;;;;;;;-7.01;70.61;100817.03;1701719;82;21182;-49
2020/12/08 04:56:17;;;;;;;5.70;1.87;;;;;;;-6.97;70.64;100819.33;1698937;82;21744;-50
2020/12/08 04:58:45;;;;;;;6.50;2.07;;;;;;;-6.96;70.66;100823.32;1700487;82;22717;-51
2020/12/08 05:01:26;;;;;;;7.43;2.70;;;;;;;-6.98;70.67;100814.95;1699374;82;21196;-51
2020/12/08 05:04:00;;;;;;;7.83;2.70;;;;;;;-7.00;70.73;100813.59;1702158;82;21242;-48
2020/12/08 05:06:28;;;;;;;7.72;2.12;;;;;;;-7.03;70.79;100808.22;1698879;82;21609;-52
2020/12/08 05:09:04;;;;;;;8.00;2.93;;;;;;;-7.03;70.83;100809.53;1674149;84;21205;-49
2020/12/08 05:11:31;;;;;;;9.67;2.97;;;;;;;-7.03;70.89;100812.14;1702062;82;22279;-54
2020/12/08 05:14:02;;;;;;;10.37;3.13;;;;;;;-7.03;70.95;100805.60;1701928;82;21176;-48
2020/12/08 05:16:29;;;;;;;7.00;2.40;;;;;;;-7.02;70.97;100806.08;1675465;84;21202;-52
2020/12/08 05:19:09;;;;;;;10.20;3.13;;;;;;;-7.02;71.01;100810.01;1675434;83;21181;-50
2020/12/08 05:21:51;;;;;;;11.13;3.73;;;;;;;-7.08;71.07;100816.32;1703832;82;21134;-52
2020/12/08 05:24:31;;;;;;;9.40;2.83;;;;;;;-7.10;71.21;100807.92;1709613;82;21265;-50
2020/12/08 05:27:02;;;;;;;11.87;3.00;;;;;;;-7.16;71.33;100803.77;1706853;82;21582;-49
2020/12/08 05:29:30;;;;;;;10.67;3.90;;;;;;;-7.21;71.47;100814.04;1702236;82;21147;-50
2020/12/08 05:32:11;;;;;;;9.13;3.07;;;;;;;-7.23;71.62;100807.88;1704959;82;21462;-51
2020/12/08 05:34:38;;;;;;;10.63;3.70;;;;;;;-7.26;71.68;100812.56;1695688;82;21207;-48
2020/12/08 05:37:05;;;;;;;10.30;2.50;;;;;;;-7.30;71.78;100809.75;1703305;82;21232;-53
2020/12/08 05:39:32;;;;;;;10.07;2.63;;;;;;;-7.28;71.86;100810.71;1700197;82;21627;-51
2020/12/08 05:42:00;;;;;;;14.30;2.93;;;;;;;-7.24;71.95;100814.36;1706145;82;22089;-53
2020/12/08 05:44:27;;;;;;;10.17;3.13;;;;;;;-7.22;71.91;100818.79;1699032;82;21242;-47
2020/12/08 05:46:54;;;;;;;10.63;2.80;;;;;;;-7.21;71.90;100816.66;1701305;82;21187;-49
2020/12/08 05:49:22;;;;;;;8.37;2.37;;;;;;;-7.23;71.89;100803.95;1702921;82;21233;-50
2020/12/08 05:51:51;;;;;;;12.40;3.67;;;;;;;-7.23;71.96;100817.03;1707433;82;21254;-49
2020/12/08 05:54:20;;;;;;;10.60;2.57;;;;;;;-7.28;72.01;100819.45;1703425;82;21195;-50
2020/12/08 05:56:48;;;;;;;11.50;3.37;;;;;;;-7.29;72.04;100825.52;1700243;82;21170;-48
2020/12/08 05:59:24;;;;;;;15.83;3.73;;;;;;;-7.32;72.13;100820.18;1700943;82;21156;-51
2020/12/08 06:01:51;;;;;;;9.83;4.27;;;;;;;-7.30;72.20;100822.83;1699800;82;21484;-49
2020/12/08 06:04:18;;;;;;;10.53;3.13;;;;;;;-7.28;72.15;100828.61;1698706;82;21915;-48
2020/12/08 06:06:49;;;;;;;12.90;4.47;;;;;;;-7.27;72.21;100832.12;1702451;82;21183;-47
2020/12/08 06:09:33;;;;;;;12.13;3.23;;;;;;;-7.27;72.19;100825.58;1704087;82;21967;-47
2020/12/08 06:12:03;;;;;;;14.27;2.97;;;;;;;-7.29;72.26;100831.16;1701070;82;21600;-52
2020/12/08 06:14:38;;;;;;;9.00;2.47;;;;;;;-7.30;72.37;100827.64;1868318;75;23336;-50
2020/12/08 06:17:07;;;;;;;10.93;3.40;;;;;;;-7.35;72.42;100842.28;1848612;77;21159;-51
2020/12/08 06:19:34;;;;;;;12.13;3.20;;;;;;;-7.35;72.53;100828.30;1847754;76;21225;-48
2020/12/08 06:22:10;;;;;;;12.43;3.03;;;;;;;-7.35;72.58;100834.84;1777747;78;21539;-48
2020/12/08 06:24:54;;;;;;;9.17;3.20;;;;;;;-7.33;72.62;100841.94;1811729;78;21025;-51
2020/12/08 06:27:22;;;;;;;7.53;2.60;;;;;;;-7.33;72.66;100836.70;1808116;77;21009;-50
2020/12/08 06:29:53;;;;;;;13.93;4.10;;;;;;;-7.35;72.78;100835.73;1817197;77;20973;-51
2020/12/08 06:32:31;;;;;;;8.87;2.90;;;;;;;-7.33;72.79;100844.55;1817867;77;21291;-48
2020/12/08 06:35:10;;;;;;;12.57;2.67;;;;;;;-7.33;72.83;100832.78;1806158;77;21464;-49
2020/12/08 06:37:50;;;;;;;10.50;3.07;;;;;;;-7.35;72.88;100833.53;1816975;77;21183;-48
2020/12/08 06:40:19;;;;;;;6.90;2.63;;;;;;;-7.36;72.99;100830.44;1812603;77;21115;-52
2020/12/08 06:42:47;;;;;;;9.03;2.03;;;;;;;-7.35;73.03;100834.43;1811676;77;21194;-48
2020/12/08 06:45:22;;;;;;;8.40;3.23;;;;;;;-7.33;73.10;100828.86;1782071;79;22575;-48
2020/12/08 06:47:51;;;;;;;13.17;3.43;;;;;;;-7.30;73.08;100831.98;1775520;79;21598;-50
2020/12/08 06:50:29;;;;;;;8.27;2.20;;;;;;;-7.30;73.07;100843.34;1777106;79;21184;-49
2020/12/08 06:53:00;;;;;;;10.20;3.10;;;;;;;-7.31;73.20;100849.81;1780247;79;21112;-48
2020/12/08 06:55:28;;;;;;;11.00;3.57;;;;;;;-7.28;73.28;100834.25;1775149;79;21529;-47
2020/12/08 06:58:05;;;;;;;11.63;3.97;;;;;;;-7.26;73.30;100833.49;1742728;80;21227;-50
2020/12/08 07:00:32;;;;;;;8.30;2.40;;;;;;;-7.20;73.33;100839.79;1751122;80;21191;-52
2020/12/08 07:03:02;;;;;;;12.93;3.20;;;;;;;-7.18;73.41;100835.52;1750458;80;21222;-47
2020/12/08 07:05:31;;;;;;;10.93;3.67;;;;;;;-7.18;73.51;100828.56;1752984;80;21603;-50
2020/12/08 07:08:02;;;;;;;10.40;3.03;;;;;;;-7.15;73.67;100834.34;1751010;80;21193;-49
2020/12/08 07:10:29;;;;;;;7.07;2.70;;;;;;;-7.12;73.63;100834.44;1748250;80;21852;-49
2020/12/08 07:12:56;;;;;;;14.13;3.57;;;;;;;-7.09;73.74;100835.88;1752457;80;21297;-48
2020/12/08 07:15:26;;;;;;;6.73;1.90;;;;;;;-7.08;73.81;100837.26;1751269;80;21259;-49
2020/12/08 07:18:07;;;;;;;8.90;2.63;;;;;;;-7.08;73.81;100838.56;1753271;80;21294;-52
2020/12/08 07:20:34;;;;;;;7.93;2.43;;;;;;;-7.07;73.70;100837.73;1756156;80;21210;-52
2020/12/08 07:23:03;;;;;;;9.93;2.40;;;;;;;-7.03;73.73;100841.34;1754228;80;23601;-49
2020/12/08 07:25:31;;;;;;;10.63;3.20;;;;;;;-6.99;73.58;100838.03;1750037;80;21658;-48
2020/12/08 07:27:58;;;;;;;7.87;2.80;;;;;;;-6.97;73.31;100838.95;1781638;78;21278;-52
2020/12/08 07:30:27;;;;;;;9.57;3.17;;;;;;;-6.97;73.29;100836.34;1724548;80;21770;-53
2020/12/08 07:32:54;;;;;;;14.60;3.13;;;;;;;-6.95;73.35;100834.27;1754599;80;21127;-49
2020/12/08 07:35:26;;;;;;;7.40;2.63;;;;;;;-6.90;73.18;100835.36;1777683;78;21577;-47
2020/12/08 07:37:58;;;;;;;12.43;2.57;;;;;;;-6.86;73.07;100833.73;1771435;78;22156;-48
2020/12/08 07:40:32;;;;;;;11.40;4.03;;;;;;;-6.81;73.02;100838.75;1755803;80;21127;-48
2020/12/08 07:42:59;;;;;;;;;;;;;;;-6.81;72.93;100836.55;1756200;80;21159;-48
2020/12/08 07:45:27;;;;;;;8.07;2.57;;;;;;;-6.80;72.90;100844.42;1763381;79;20574;-54
2020/12/08 07:47:58;;;;;;;10.07;2.60;;;;;;;-6.78;72.92;100845.80;1764881;79;22539;-51
2020/12/08 07:54:01;;;;;;;13.13;3.87;;;;;;;-6.71;72.96;100839.55;1788931;78;22688;-51
2020/12/08 07:56:30;;;;;;;12.70;3.73;;;;;;;-6.70;73.00;100849.60;1771800;79;20989;-47
2020/12/08 07:58:57;;;;;;;16.33;5.93;;;;;;;-6.65;72.71;100848.07;1738002;81;21332;-48
2020/12/08 08:01:25;;;;;;;13.40;4.30;;;;;;;-6.63;72.78;100839.41;1704344;82;21553;-53
2020/12/08 08:03:53;;;;;;;14.03;3.90;;;;;;;-6.55;72.60;100846.28;1706979;82;21226;-48
2020/12/08 08:09:55;;;;;;;14.50;5.83;;;;;;;-6.47;72.41;100840.02;1647395;85;21222;-50
2020/12/08 08:12:22;;;;;;;17.47;3.70;;;;;;;-6.40;72.21;100841.59;1688203;83;21404;-52
2020/12/08 08:14:55;;;;;;;14.83;4.63;;;;;;;-6.34;72.08;100826.51;1654709;84;21746;-53
2020/12/08 08:17:23;;;;;;;15.57;3.47;;;;;;;-6.29;71.98;100827.14;1663235;84;21284;-52
2020/12/08 08:19:50;;;;;;;7.90;2.37;;;;;;;-6.23;71.45;100829.11;1677179;83;21658;-53
2020/12/08 08:22:17;;;;;;;10.43;4.07;;;;;;;-6.22;71.47;100825.23;1683211;83;21246;-53
2020/12/08 08:24:45;;;;;;;9.83;3.33;;;;;;;-6.21;71.05;100826.98;1686198;83;21456;-53
2020/12/08 08:27:13;;;;;;;8.80;2.77;;;;;;;-6.24;71.10;100824.70;1682648;83;21198;-53
2020/12/08 08:29:40;;;;;;;11.17;3.33;;;;;;;-6.24;70.99;100830.84;1683259;83;21186;-53
2020/12/08 08:32:07;;;;;;;15.40;3.63;;;;;;;-6.21;70.99;100824.82;1678167;83;21292;-52
2020/12/08 08:34:35;;;;;;;13.37;2.90;;;;;;;-6.16;70.90;100819.31;1686719;83;21147;-52
2020/12/08 08:37:02;;;;;;;12.53;2.50;;;;;;;-6.13;70.78;100821.64;1656853;84;21495;-53
2020/12/08 08:39:29;;;;;;;12.77;2.73;;;;;;;-6.09;70.50;100806.89;1681024;83;22036;-53
2020/12/08 08:41:57;;;;;;;8.37;3.47;;;;;;;-6.12;70.32;100815.94;1683432;83;21190;-53
2020/12/08 08:44:24;;;;;;;9.90;2.87;;;;;;;-6.17;70.29;100813.59;1685795;83;21545;-53
2020/12/08 08:46:52;;;;;;;7.80;2.43;;;;;;;-6.22;70.27;100817.38;1685023;83;21206;-52
2020/12/08 08:49:19;;;;;;;7.07;2.57;;;;;;;-6.24;70.15;100806.36;1684435;83;21522;-52
2020/12/08 08:51:48;;;;;;;7.93;2.67;;;;;;;-6.26;70.05;100808.91;1681645;83;22544;-52
2020/12/08 08:54:17;;;;;;;5.10;2.57;;;;;;;-6.25;70.30;100808.08;1653767;84;21210;-53
2020/12/08 08:56:44;;;;;;;8.80;2.47;;;;;;;-6.22;70.33;100802.97;1657087;84;21215;-53
2020/12/08 08:59:12;;;;;;;6.50;2.03;;;;;;;-6.18;70.20;100803.53;1652206;84;21198;-52
2020/12/08 09:01:39;;;;;;;9.40;2.07;;;;;;;-6.16;70.09;100808.41;1656394;84;21091;-52
2020/12/08 09:04:06;;;;;;;6.63;2.93;;;;;;;-6.15;70.06;100807.58;1655633;84;21238;-52
2020/12/08 09:06:34;;;;;;;8.30;2.70;;;;;;;-6.13;70.21;100806.33;1657849;84;21200;-53
2020/12/08 09:09:01;;;;;;;7.63;2.47;;;;;;;-6.07;70.06;100805.64;1661198;84;21223;-52
2020/12/08 09:11:29;;;;;;;8.33;2.23;;;;;;;-6.02;70.14;100810.19;1655071;84;21197;-52
2020/12/08 09:13:56;;;;;;;9.27;2.40;;;;;;;-5.97;70.31;100804.70;1660800;84;22252;-53
2020/12/08 09:16:25;;;;;;;10.67;2.90;;;;;;;-5.90;70.16;100807.11;1687800;83;21221;-52
2020/12/08 09:18:52;;;;;;;7.87;2.00;;;;;;;-5.85;69.90;100806.80;1695542;83;21220;-53
2020/12/08 09:21:20;;;;;;;8.97;2.37;;;;;;;-5.84;69.82;100803.34;1658078;84;21233;-53
2020/12/08 09:23:47;;;;;;;9.43;2.80;;;;;;;-5.80;69.64;100802.63;1659321;84;21669;-53
2020/12/08 09:26:15;;;;;;;9.57;2.53;;;;;;;-5.80;69.44;100813.11;1697098;82;22281;-52
2020/12/08 09:28:43;;;;;;;8.97;2.80;;;;;;;-5.79;69.46;100803.09;1695296;82;21227;-53
2020/12/08 09:31:10;;;;;;;12.23;3.07;;;;;;;-5.76;69.36;100805.38;1697122;82;21652;-52
2020/12/08 09:33:38;;;;;;;4.73;1.60;;;;;;;-5.73;69.32;100805.92;1711497;82;21540;-53
2020/12/08 09:36:06;;;;;;;8.83;2.63;;;;;;;-5.72;69.32;100804.66;1697831;82;21155;-52
2020/12/08 09:38:33;;;;;;;7.93;2.73;;;;;;;-5.66;69.22;100803.07;1695491;82;21209;-52
2020/12/08 09:41:01;;;;;;;9.03;1.73;;;;;;;-5.67;69.04;100798.66;1696121;82;22830;-53
2020/12/08 09:43:28;;;;;;;11.53;2.40;;;;;;;-5.67;69.10;100794.73;1698175;82;21214;-52
2020/12/08 09:45:55;;;;;;;10.30;2.27;;;;;;;-5.64;69.20;100797.47;1695838;82;21744;-52
2020/12/08 09:48:23;;;;;;;9.40;2.23;;;;;;;-5.63;69.21;100800.14;1703791;82;21194;-53
2020/12/08 09:50:51;;;;;;;9.00;3.10;;;;;;;-5.60;69.26;100793.66;1701895;82;21715;-52
2020/12/08 09:53:19;;;;;;;9.03;1.90;;;;;;;-5.55;69.46;100790.80;1700336;82;21143;-52
2020/12/08 09:55:48;;;;;;;10.83;2.53;;;;;;;-5.52;69.68;100793.49;1705857;82;21258;-52
2020/12/08 09:58:16;;;;;;;9.87;2.10;;;;;;;-5.51;69.91;100790.03;1697849;82;21612;-53
2020/12/08 10:00:43;;;;;;;8.57;2.53;;;;;;;-5.47;69.90;100789.30;1685862;83;21172;-53
2020/12/08 10:03:10;;;;;;;5.77;2.27;;;;;;;-5.46;69.85;100796.34;1660675;84;21629;-52
2020/12/08 10:05:38;;;;;;;9.07;2.37;;;;;;;-5.42;69.81;100798.63;1657379;84;21271;-52
2020/12/08 10:08:05;;;;;;;9.23;2.33;;;;;;;-5.42;69.86;100792.95;1697646;82;21216;-52
2020/12/08 10:10:32;;;;;;;6.60;2.40;;;;;;;-5.40;69.88;100797.84;1703400;82;21203;-53
2020/12/08 10:13:00;;;;;;;7.83;1.93;;;;;;;-5.38;69.79;100793.95;1660551;84;21410;-53
2020/12/08 10:15:28;;;;;;;5.90;2.50;;;;;;;-5.38;70.05;100803.14;1702283;82;21189;-53
2020/12/08 10:17:55;;;;;;;11.47;2.70;;;;;;;-5.41;70.15;100789.49;1707314;82;21138;-53
2020/12/08 10:20:23;;;;;;;7.53;2.17;;;;;;;-5.39;69.88;100790.44;1662451;84;21262;-53
2020/12/08 10:22:50;;;;;;;8.73;3.13;;;;;;;-5.44;70.17;100785.86;1690512;82;21227;-54
2020/12/08 10:25:18;;;;;;;7.87;2.50;;;;;;;-5.47;70.32;100784.06;1707009;82;21173;-54
2020/12/08 10:27:45;;;;;;;9.80;2.57;;;;;;;-5.47;70.49;100782.75;1702201;82;22311;-53
2020/12/08 10:30:14;;;;;;;9.07;2.87;;;;;;;-5.48;70.29;100788.83;1686799;82;21259;-53
2020/12/08 10:32:42;;;;;;;9.50;2.57;;;;;;;-5.51;70.28;100788.72;1703268;82;21162;-53
2020/12/08 10:35:09;;;;;;;7.87;2.57;;;;;;;-5.55;70.83;100782.03;1659088;84;21854;-53
2020/12/08 10:37:36;;;;;;;10.40;2.27;;;;;;;-5.56;71.33;100787.70;1689751;82;21163;-51
2020/12/08 10:40:04;;;;;;;6.23;2.50;;;;;;;-5.57;71.43;100777.14;1690366;82;21220;-53
2020/12/08 10:42:31;;;;;;;4.93;2.33;;;;;;;-5.57;71.74;100777.14;1687495;82;21605;-53
2020/12/08 10:44:59;;;;;;;9.73;2.93;;;;;;;-5.56;71.53;100771.06;1688140;82;21148;-53
2020/12/08 10:47:27;;;;;;;9.83;2.97;;;;;;;-5.55;71.59;100775.05;1704602;82;21215;-53
2020/12/08 10:49:55;;;;;;;5.80;2.50;;;;;;;-5.52;71.35;100775.55;1701788;82;21206;-52
2020/12/08 10:52:22;;;;;;;12.90;2.13;;;;;;;-5.53;71.48;100772.03;1700046;82;21457;-54
2020/12/08 10:54:50;;;;;;;15.77;3.53;;;;;;;-5.49;71.58;100769.99;1706383;82;21387;-53
2020/12/08 10:57:17;;;;;;;14.57;4.03;;;;;;;-5.48;71.41;100769.16;1658504;84;21156;-53
2020/12/08 10:59:45;;;;;;;8.40;3.00;;;;;;;-5.48;71.29;100781.38;1653494;85;21563;-53
2020/12/08 11:02:13;;;;;;;11.50;3.90;;;;;;;-5.51;71.45;100774.30;1660953;84;21219;-52
2020/12/08 11:04:40;;;;;;;19.70;5.73;;;;;;;-5.49;71.49;100780.91;1691854;82;21350;-52
2020/12/08 11:07:09;;;;;;;18.57;4.20;;;;;;;-5.47;71.27;100781.85;1700872;82;21176;-52
2020/12/08 11:09:37;;;;;;;10.23;3.63;;;;;;;-5.50;71.37;100773.45;1701974;82;21390;-53
2020/12/08 11:12:06;;;;;;;14.87;3.03;;;;;;;-5.48;71.70;100772.20;1656693;84;21134;-53
2020/12/08 11:14:34;;;;;;;10.73;3.97;;;;;;;-5.43;71.55;100774.11;1655343;84;21717;-52
2020/12/08 11:17:01;;;;;;;13.20;3.93;;;;;;;-5.41;71.58;100772.86;1653704;84;21449;-52
2020/12/08 11:19:30;;;;;;;9.53;3.07;;;;;;;-5.40;71.54;100758.90;1652170;84;21290;-52
2020/12/08 11:22:05;;;;;;;10.03;3.73;;;;;;;-5.39;71.51;100764.62;1655275;84;22483;-53
2020/12/08 11:24:34;;;;;;;9.83;3.43;;;;;;;-5.40;71.55;100767.66;1655823;84;21222;-54
2020/12/08 11:27:01;;;;;;;16.43;4.80;;;;;;;-5.41;71.55;100769.81;1657145;84;21215;-54
2020/12/08 11:29:28;;;;;;;18.97;7.60;;;;;;;-5.42;71.43;100769.34;1655104;84;22479;-52
2020/12/08 11:31:56;;;;;;;12.17;3.20;;;;;;;-5.45;71.49;100768.38;1654878;84;21652;-53
2020/12/08 11:34:23;;;;;;;11.37;3.13;;;;;;;-5.44;71.57;100767.50;1655647;84;21490;-53
2020/12/08 11:36:55;;;;;;;10.13;3.07;;;;;;;-5.46;71.36;100767.90;1657161;84;21211;-53